Buoy 41560

sailwx.info

Track history (hours):
 
Tides and Currents Weather Stations Pressure Air Temp Water Temp Dewpoint Dewpoint Depression Visibility Wind Speed Wind Dir Waves Ship Positions

Drifting buoy 41560

Last reported at 2014-Dec-18 11:00 UTC. Time now 2014-Dec-18 12:29 UTC.
Position N 33°59' W 018°60'.

Barometer 1033.2 mb

Date/timePositionNaut miles runAvg speedWind from/ knotsBaromVisibWave heightAir tempDewpointWater temp
2014-Dec-18 11:00N 33°59' W 018°60'1 0.6 1033.2
2014-Dec-18 10:00N 34°00' W 019°00'0 0.0 1032.7
2014-Dec-18 09:00N 34°00' W 019°00'1 0.4 1032.2
2014-Dec-18 07:00N 33°59' W 019°01'0 0.1 1031.6
2014-Dec-18 06:00N 33°59' W 019°01'0 0.2 1031.1
2014-Dec-18 05:00N 33°59' W 019°01'0 0.1 1031.1
2014-Dec-18 04:00N 33°59' W 019°01'0 0.4 1031.2
2014-Dec-18 03:00N 33°59' W 019°01'1 0.3 1031.3
2014-Dec-17 23:00N 33°58' W 019°01'1 0.3 1032.2
2014-Dec-17 21:00N 33°58' W 019°00'1 0.3 1032.4
2014-Dec-17 19:00N 33°58' W 019°01'1 0.5 1032.2
2014-Dec-17 18:00N 33°58' W 019°01'0 0.1 1032.4
2014-Dec-17 17:00N 33°58' W 019°02'0 0.4 1032.4
2014-Dec-17 16:00N 33°58' W 019°01'1 0.6 1032.1
2014-Dec-17 14:00N 33°58' W 019°02'0 0.2 1032.3
2014-Dec-17 12:00N 33°58' W 019°02'1 0.7 1033.9
2014-Dec-17 11:00N 33°58' W 019°02'0 0.4 1034.3
2014-Dec-17 10:00N 33°58' W 019°02'0 0.3 1034.0
2014-Dec-17 09:00N 33°58' W 019°02'0 0.1 1033.6
2014-Dec-17 06:00N 33°58' W 019°02'1 0.6 1032.4
2014-Dec-17 05:00N 33°57' W 019°02'1 0.6 1032.7
2014-Dec-17 03:00N 33°58' W 019°03'1 0.5 1033.2
2014-Dec-17 02:00N 33°58' W 019°03'1 0.4 1033.4
2014-Dec-16 23:00N 33°58' W 019°02'1 1.0 1034.2
2014-Dec-16 22:00N 33°58' W 019°03'0 0.0 1034.1
2014-Dec-16 21:00N 33°58' W 019°03'0 0.2 1034.0
2014-Dec-16 20:00N 33°58' W 019°03'1 0.4 1033.9
2014-Dec-16 18:00N 33°58' W 019°03'2 0.1 1033.4
2014-Dec-15 23:00N 33°59' W 019°05'0 0.5 1034.3
2014-Dec-15 22:00N 33°59' W 019°05'1 0.8 1034.4
2014-Dec-15 21:00N 33°59' W 019°05'0 0.5 1034.0
2014-Dec-15 20:00N 33°59' W 019°05'0 0.0 1033.8
2014-Dec-15 19:00N 33°59' W 019°05'0 0.0 1033.4
2014-Dec-15 18:00N 33°59' W 019°05'1 0.6 1033.0
2014-Dec-15 17:00N 34°00' W 019°05'0 0.0 1032.8
2014-Dec-15 16:00N 34°00' W 019°05'1 1.0 1032.6
2014-Dec-15 15:00N 34°00' W 019°07'0 0.0 1032.7
2014-Dec-15 14:00N 34°00' W 019°07'0 0.0 1033.3
2014-Dec-15 13:00N 34°00' W 019°07'0 0.5 1033.9
2014-Dec-15 12:00N 34°00' W 019°06'0 0.5 1034.5
2014-Dec-15 11:00N 34°00' W 019°07'0 0.5 1034.5
2014-Dec-15 10:00N 34°00' W 019°06'0 0.0 1033.9
2014-Dec-15 09:00N 34°00' W 019°06'0 0.0 1033.1
2014-Dec-15 08:00N 34°00' W 019°06'1 0.8 1032.6
2014-Dec-15 07:00N 34°01' W 019°05'0 0.0 1032.2
2014-Dec-15 06:00N 34°01' W 019°05'0 0.5 1032.0
2014-Dec-15 05:00N 34°01' W 019°05'1 1.2 1031.9
2014-Dec-15 04:00N 34°00' W 019°06'2 1.6 1032.2
2014-Dec-15 03:00N 34°01' W 019°07'0 0.0 1032.3
2014-Dec-15 02:00N 34°01' W 019°07'0 0.0 1032.1
2014-Dec-14 23:00N 34°01' W 019°07'1 1.2 1032.3
2014-Dec-14 22:00N 34°01' W 019°08'1 1.2 1032.1
2014-Dec-14 21:00N 34°01' W 019°07'0 0.5 1032.1
2014-Dec-14 20:00N 34°01' W 019°07'1 0.3 1031.7
2014-Dec-14 18:00N 34°02' W 019°07'1 1.0 1030.7
2014-Dec-14 17:00N 34°02' W 019°08'0 0.0 1030.5
2014-Dec-14 16:00N 34°02' W 019°08'0 0.0 1030.3
2014-Dec-14 15:00N 34°02' W 019°08'0 0.5 1030.1
2014-Dec-14 14:00N 34°02' W 019°08'0 0.5 1030.5
2014-Dec-14 13:00N 34°02' W 019°08'0 0.5 1031.0
2014-Dec-14 12:00N 34°02' W 019°08'0 0.0 1031.6
2014-Dec-14 11:00N 34°02' W 019°08'1 0.8 1031.6
2014-Dec-14 10:00N 34°02' W 019°08'1 1.2 1030.8
2014-Dec-14 09:00N 34°02' W 019°09'1 0.4 1030.1
2014-Dec-14 07:00N 34°02' W 019°08'0 0.0 1029.2
2014-Dec-14 06:00N 34°02' W 019°08'0 0.5 1028.8
2014-Dec-14 05:00N 34°02' W 019°09'1 0.6 1028.9
2014-Dec-14 04:00N 34°03' W 019°09'0 0.5 1029.2
2014-Dec-14 03:00N 34°03' W 019°10'1 0.3 1028.9
2014-Dec-13 23:00N 34°04' W 019°10'8 0.3 1028.8
2014-Dec-12 22:00N 34°12' W 019°11'1 0.5 1021.7
2014-Dec-12 19:00N 34°12' W 019°13'0 0.0 1021.1
2014-Dec-12 18:00N 34°12' W 019°13'4 0.3 1020.8
2014-Dec-12 05:00N 34°08' W 019°16'0 0.2 1024.7
2014-Dec-12 04:00N 34°08' W 019°16'2 0.9 1025.4
2014-Dec-12 02:00N 34°07' W 019°16'0 0.2 1026.3
2014-Dec-11 23:00N 34°06' W 019°17'0 0.0 1027.4
2014-Dec-11 22:00N 34°06' W 019°17'0 0.4 1027.7
2014-Dec-11 21:00N 34°06' W 019°17'0 0.0 1027.6
2014-Dec-11 19:00N 34°06' W 019°17'0 0.2 1027.5
2014-Dec-11 18:00N 34°06' W 019°17'0 0.2 1027.5
2014-Dec-11 17:00N 34°06' W 019°17'0 0.2 1027.9
2014-Dec-11 16:00N 34°06' W 019°17'0 0.3 1028.7
2014-Dec-11 15:00N 34°06' W 019°17'0 0.0 1029.1
2014-Dec-11 14:00N 34°06' W 019°17'0 0.1 1029.6
2014-Dec-11 12:00N 34°06' W 019°17'1 0.8 1031.7
2014-Dec-11 11:00N 34°06' W 019°18'0 0.1 1032.2
2014-Dec-11 07:00N 34°06' W 019°18'0 0.1 1030.9
2014-Dec-11 05:00N 34°06' W 019°18'0 0.2 1030.7
2014-Dec-11 04:00N 34°06' W 019°18'1 0.3 1031.0
2014-Dec-11 02:00N 34°06' W 019°18'0 0.0 1032.0
2014-Dec-10 23:00N 34°06' W 019°18'0 0.1 1032.0
2014-Dec-10 22:00N 34°05' W 019°18'1 1.0 1032.3
2014-Dec-10 21:00N 34°06' W 019°16'0 0.5 1032.3
2014-Dec-10 20:00N 34°06' W 019°16'0 0.2 1032.0
2014-Dec-10 18:00N 34°06' W 019°16'1 1.0 1031.8
2014-Dec-10 17:00N 34°06' W 019°17'0 0.3 1032.0
2014-Dec-10 16:00N 34°06' W 019°17'1 0.3 1032.3
2014-Dec-10 14:00N 34°06' W 019°18'0 0.1 1032.3
2014-Dec-10 12:00N 34°05' W 019°17'1 0.5 1033.2
2014-Dec-10 10:00N 34°05' W 019°16'0 0.4 1032.7
2014-Dec-10 09:00N 34°05' W 019°16'0 0.0 1032.4
2014-Dec-10 08:00N 34°05' W 019°16'1 0.5 1032.1
2014-Dec-10 06:00N 34°04' W 019°16'0 0.2 1031.5
2014-Dec-10 05:00N 34°05' W 019°16'0 0.2 1031.6
2014-Dec-10 04:00N 34°05' W 019°16'1 0.3 1031.9
2014-Dec-10 02:00N 34°04' W 019°16'1 0.3 1031.5
2014-Dec-09 22:00N 34°04' W 019°15'0 0.0 1032.2
2014-Dec-09 21:00N 34°04' W 019°15'0 0.3 1031.6
2014-Dec-09 20:00N 34°04' W 019°14'0 0.1 1031.5
2014-Dec-09 17:00N 34°04' W 019°14'0 0.3 1030.4
2014-Dec-09 16:00N 34°04' W 019°14'1 0.4 1030.1
2014-Dec-09 14:00N 34°04' W 019°15'1 0.3 1030.3
2014-Dec-09 11:00N 34°03' W 019°14'1 0.5 1032.0
2014-Dec-09 10:00N 34°03' W 019°13'1 0.9 1031.5
2014-Dec-09 09:00N 34°02' W 019°13'1 0.4 1030.8
2014-Dec-09 07:00N 34°02' W 019°12'0 0.2 1029.8
2014-Dec-09 06:00N 34°02' W 019°12'0 0.2 1029.4
2014-Dec-09 05:00N 34°02' W 019°12'0 0.5 1029.8
2014-Dec-09 04:00N 34°02' W 019°12'1 1.1 1030.2
2014-Dec-09 03:00N 34°02' W 019°10'0 0.0 1030.9
2014-Dec-09 02:00N 34°02' W 019°10'1 0.2 1031.3
2014-Dec-08 22:00N 34°01' W 019°09'0 0.2 1031.5
2014-Dec-08 21:00N 34°02' W 019°09'1 0.6 1031.1
2014-Dec-08 19:00N 34°02' W 019°08'0 0.0 1030.7
2014-Dec-08 18:00N 34°02' W 019°08'0 0.1 1031.0
2014-Dec-08 17:00N 34°02' W 019°08'0 0.4 1031.0
2014-Dec-08 16:00N 34°02' W 019°09'0 0.2 1030.5
2014-Dec-08 14:00N 34°02' W 019°08'2 0.9 1030.8
2014-Dec-08 12:00N 34°03' W 019°06'1 0.7 1032.1
2014-Dec-08 11:00N 34°03' W 019°06'   1032.5
Track history (hours):
 
Tides and Currents Weather Stations Pressure Air Temp Water Temp Dewpoint Dewpoint Depression Visibility Wind Speed Wind Dir Waves Ship Positions

Drifting buoy 41560

Last reported at 2014-Dec-18 11:00 UTC. Time now 2014-Dec-18 12:30 UTC.
Position N 33°59' W 018°60'.

Barometer 1033.2 mb

Date/timePositionNaut miles runAvg speedWind from/ knotsBaromVisibWave heightAir tempDewpointWater temp
2014-Dec-18 11:00N 33°59' W 018°60'1 0.6 1033.2
2014-Dec-18 10:00N 34°00' W 019°00'0 0.0 1032.7
2014-Dec-18 09:00N 34°00' W 019°00'1 0.4 1032.2
2014-Dec-18 07:00N 33°59' W 019°01'0 0.1 1031.6
2014-Dec-18 06:00N 33°59' W 019°01'0 0.2 1031.1
2014-Dec-18 05:00N 33°59' W 019°01'0 0.1 1031.1
2014-Dec-18 04:00N 33°59' W 019°01'0 0.4 1031.2
2014-Dec-18 03:00N 33°59' W 019°01'1 0.3 1031.3
2014-Dec-17 23:00N 33°58' W 019°01'1 0.3 1032.2
2014-Dec-17 21:00N 33°58' W 019°00'1 0.3 1032.4
2014-Dec-17 19:00N 33°58' W 019°01'1 0.5 1032.2
2014-Dec-17 18:00N 33°58' W 019°01'0 0.1 1032.4
2014-Dec-17 17:00N 33°58' W 019°02'0 0.4 1032.4
2014-Dec-17 16:00N 33°58' W 019°01'1 0.6 1032.1
2014-Dec-17 14:00N 33°58' W 019°02'0 0.2 1032.3
2014-Dec-17 12:00N 33°58' W 019°02'1 0.7 1033.9
2014-Dec-17 11:00N 33°58' W 019°02'0 0.4 1034.3
2014-Dec-17 10:00N 33°58' W 019°02'0 0.3 1034.0
2014-Dec-17 09:00N 33°58' W 019°02'0 0.1 1033.6
2014-Dec-17 06:00N 33°58' W 019°02'1 0.6 1032.4
2014-Dec-17 05:00N 33°57' W 019°02'1 0.6 1032.7
2014-Dec-17 03:00N 33°58' W 019°03'1 0.5 1033.2
2014-Dec-17 02:00N 33°58' W 019°03'1 0.4 1033.4
2014-Dec-16 23:00N 33°58' W 019°02'1 1.0 1034.2
2014-Dec-16 22:00N 33°58' W 019°03'0 0.0 1034.1
2014-Dec-16 21:00N 33°58' W 019°03'0 0.2 1034.0
2014-Dec-16 20:00N 33°58' W 019°03'1 0.4 1033.9
2014-Dec-16 18:00N 33°58' W 019°03'2 0.1 1033.4
2014-Dec-15 23:00N 33°59' W 019°05'0 0.5 1034.3
2014-Dec-15 22:00N 33°59' W 019°05'1 0.8 1034.4
2014-Dec-15 21:00N 33°59' W 019°05'0 0.5 1034.0
2014-Dec-15 20:00N 33°59' W 019°05'0 0.0 1033.8
2014-Dec-15 19:00N 33°59' W 019°05'0 0.0 1033.4
2014-Dec-15 18:00N 33°59' W 019°05'1 0.6 1033.0
2014-Dec-15 17:00N 34°00' W 019°05'0 0.0 1032.8
2014-Dec-15 16:00N 34°00' W 019°05'1 1.0 1032.6
2014-Dec-15 15:00N 34°00' W 019°07'0 0.0 1032.7
2014-Dec-15 14:00N 34°00' W 019°07'0 0.0 1033.3
2014-Dec-15 13:00N 34°00' W 019°07'0 0.5 1033.9
2014-Dec-15 12:00N 34°00' W 019°06'0 0.5 1034.5
2014-Dec-15 11:00N 34°00' W 019°07'0 0.5 1034.5
2014-Dec-15 10:00N 34°00' W 019°06'0 0.0 1033.9
2014-Dec-15 09:00N 34°00' W 019°06'0 0.0 1033.1
2014-Dec-15 08:00N 34°00' W 019°06'1 0.8 1032.6
2014-Dec-15 07:00N 34°01' W 019°05'0 0.0 1032.2
2014-Dec-15 06:00N 34°01' W 019°05'0 0.5 1032.0
2014-Dec-15 05:00N 34°01' W 019°05'1 1.2 1031.9
2014-Dec-15 04:00N 34°00' W 019°06'2 1.6 1032.2
2014-Dec-15 03:00N 34°01' W 019°07'0 0.0 1032.3
2014-Dec-15 02:00N 34°01' W 019°07'0 0.0 1032.1
2014-Dec-14 23:00N 34°01' W 019°07'1 1.2 1032.3
2014-Dec-14 22:00N 34°01' W 019°08'1 1.2 1032.1
2014-Dec-14 21:00N 34°01' W 019°07'0 0.5 1032.1
2014-Dec-14 20:00N 34°01' W 019°07'1 0.3 1031.7
2014-Dec-14 18:00N 34°02' W 019°07'1 1.0 1030.7
2014-Dec-14 17:00N 34°02' W 019°08'0 0.0 1030.5
2014-Dec-14 16:00N 34°02' W 019°08'0 0.0 1030.3
2014-Dec-14 15:00N 34°02' W 019°08'0 0.5 1030.1
2014-Dec-14 14:00N 34°02' W 019°08'0 0.5 1030.5
2014-Dec-14 13:00N 34°02' W 019°08'0 0.5 1031.0
2014-Dec-14 12:00N 34°02' W 019°08'0 0.0 1031.6
2014-Dec-14 11:00N 34°02' W 019°08'1 0.8 1031.6
2014-Dec-14 10:00N 34°02' W 019°08'1 1.2 1030.8
2014-Dec-14 09:00N 34°02' W 019°09'1 0.4 1030.1
2014-Dec-14 07:00N 34°02' W 019°08'0 0.0 1029.2
2014-Dec-14 06:00N 34°02' W 019°08'0 0.5 1028.8
2014-Dec-14 05:00N 34°02' W 019°09'1 0.6 1028.9
2014-Dec-14 04:00N 34°03' W 019°09'0 0.5 1029.2
2014-Dec-14 03:00N 34°03' W 019°10'1 0.3 1028.9
2014-Dec-13 23:00N 34°04' W 019°10'8 0.3 1028.8
2014-Dec-12 22:00N 34°12' W 019°11'1 0.5 1021.7
2014-Dec-12 19:00N 34°12' W 019°13'0 0.0 1021.1
2014-Dec-12 18:00N 34°12' W 019°13'4 0.3 1020.8
2014-Dec-12 05:00N 34°08' W 019°16'0 0.2 1024.7
2014-Dec-12 04:00N 34°08' W 019°16'2 0.9 1025.4
2014-Dec-12 02:00N 34°07' W 019°16'0 0.2 1026.3
2014-Dec-11 23:00N 34°06' W 019°17'0 0.0 1027.4
2014-Dec-11 22:00N 34°06' W 019°17'0 0.4 1027.7
2014-Dec-11 21:00N 34°06' W 019°17'0 0.0 1027.6
2014-Dec-11 19:00N 34°06' W 019°17'0 0.2 1027.5
2014-Dec-11 18:00N 34°06' W 019°17'0 0.2 1027.5
2014-Dec-11 17:00N 34°06' W 019°17'0 0.2 1027.9
2014-Dec-11 16:00N 34°06' W 019°17'0 0.3 1028.7
2014-Dec-11 15:00N 34°06' W 019°17'0 0.0 1029.1
2014-Dec-11 14:00N 34°06' W 019°17'0 0.1 1029.6
2014-Dec-11 12:00N 34°06' W 019°17'1 0.8 1031.7
2014-Dec-11 11:00N 34°06' W 019°18'0 0.1 1032.2
2014-Dec-11 07:00N 34°06' W 019°18'0 0.1 1030.9
2014-Dec-11 05:00N 34°06' W 019°18'0 0.2 1030.7
2014-Dec-11 04:00N 34°06' W 019°18'1 0.3 1031.0
2014-Dec-11 02:00N 34°06' W 019°18'0 0.0 1032.0
2014-Dec-10 23:00N 34°06' W 019°18'0 0.1 1032.0
2014-Dec-10 22:00N 34°05' W 019°18'1 1.0 1032.3
2014-Dec-10 21:00N 34°06' W 019°16'0 0.5 1032.3
2014-Dec-10 20:00N 34°06' W 019°16'0 0.2 1032.0
2014-Dec-10 18:00N 34°06' W 019°16'1 1.0 1031.8
2014-Dec-10 17:00N 34°06' W 019°17'0 0.3 1032.0
2014-Dec-10 16:00N 34°06' W 019°17'1 0.3 1032.3
2014-Dec-10 14:00N 34°06' W 019°18'0 0.1 1032.3
2014-Dec-10 12:00N 34°05' W 019°17'1 0.5 1033.2
2014-Dec-10 10:00N 34°05' W 019°16'0 0.4 1032.7
2014-Dec-10 09:00N 34°05' W 019°16'0 0.0 1032.4
2014-Dec-10 08:00N 34°05' W 019°16'1 0.5 1032.1
2014-Dec-10 06:00N 34°04' W 019°16'0 0.2 1031.5
2014-Dec-10 05:00N 34°05' W 019°16'0 0.2 1031.6
2014-Dec-10 04:00N 34°05' W 019°16'1 0.3 1031.9
2014-Dec-10 02:00N 34°04' W 019°16'1 0.3 1031.5
2014-Dec-09 22:00N 34°04' W 019°15'0 0.0 1032.2
2014-Dec-09 21:00N 34°04' W 019°15'0 0.3 1031.6
2014-Dec-09 20:00N 34°04' W 019°14'0 0.1 1031.5
2014-Dec-09 17:00N 34°04' W 019°14'0 0.3 1030.4
2014-Dec-09 16:00N 34°04' W 019°14'1 0.4 1030.1
2014-Dec-09 14:00N 34°04' W 019°15'1 0.3 1030.3
2014-Dec-09 11:00N 34°03' W 019°14'1 0.5 1032.0
2014-Dec-09 10:00N 34°03' W 019°13'1 0.9 1031.5
2014-Dec-09 09:00N 34°02' W 019°13'1 0.4 1030.8
2014-Dec-09 07:00N 34°02' W 019°12'0 0.2 1029.8
2014-Dec-09 06:00N 34°02' W 019°12'0 0.2 1029.4
2014-Dec-09 05:00N 34°02' W 019°12'0 0.5 1029.8
2014-Dec-09 04:00N 34°02' W 019°12'1 1.1 1030.2
2014-Dec-09 03:00N 34°02' W 019°10'0 0.0 1030.9
2014-Dec-09 02:00N 34°02' W 019°10'1 0.2 1031.3
2014-Dec-08 22:00N 34°01' W 019°09'0 0.2 1031.5
2014-Dec-08 21:00N 34°02' W 019°09'1 0.6 1031.1
2014-Dec-08 19:00N 34°02' W 019°08'0 0.0 1030.7
2014-Dec-08 18:00N 34°02' W 019°08'0 0.1 1031.0
2014-Dec-08 17:00N 34°02' W 019°08'0 0.4 1031.0
2014-Dec-08 16:00N 34°02' W 019°09'0 0.2 1030.5
2014-Dec-08 14:00N 34°02' W 019°08'2 0.9 1030.8
2014-Dec-08 12:00N 34°03' W 019°06'1 0.7 1032.1
2014-Dec-08 11:00N 34°03' W 019°06'   1032.5

Dump ship's entire track history